Time,TemperatureF,DewpointF,PressureIn,WindDirection,WindDirectionDegrees,WindSpeedMPH,WindSpeedGustMPH,Humidity,HourlyPrecipIn,Conditions,Clouds,dailyrainin,SoftwareType,DateUTC
2013-06-01 00:01:00,68.0,46.0,28.76,SSW,204,0.0,0.0,46,0.00,,,0.00,,2013-06-01 07:01:00,
2013-06-01 00:11:00,68.0,46.0,28.76,SSW,204,0.0,0.0,46,0.00,,,0.00,,2013-06-01 07:11:00,
2013-06-01 00:21:00,68.0,46.0,28.76,SSW,204,0.0,0.0,46,0.00,,,0.00,,2013-06-01 07:21:00,
2013-06-01 00:31:00,68.0,47.0,28.76,SSW,204,0.0,0.0,47,0.00,,,0.00,,2013-06-01 07:31:00,
2013-06-01 00:42:00,67.0,47.0,28.77,SSW,204,0.0,0.0,48,0.00,,,0.00,,2013-06-01 07:42:00,
2013-06-01 00:52:00,67.0,47.0,28.77,SSW,204,0.0,0.0,48,0.00,,,0.00,,2013-06-01 07:52:00,
2013-06-01 01:02:00,66.0,47.0,28.76,SSW,204,0.0,0.0,50,0.00,,,0.00,,2013-06-01 08:02:00,
2013-06-01 01:11:00,66.0,47.0,28.76,SSW,204,0.0,0.0,50,0.00,,,0.00,,2013-06-01 08:11:00,
2013-06-01 01:21:00,65.0,46.0,28.76,SSW,204,0.0,0.0,51,0.00,,,0.00,,2013-06-01 08:21:00,
2013-06-01 01:32:00,65.0,47.0,28.76,SSW,204,0.0,0.0,52,0.00,,,0.00,,2013-06-01 08:32:00,
2013-06-01 01:42:00,64.0,46.0,28.76,SSW,204,0.0,0.0,52,0.00,,,0.00,,2013-06-01 08:42:00,
2013-06-01 01:51:00,64.0,46.0,28.76,SSW,204,0.0,0.0,52,0.00,,,0.00,,2013-06-01 08:51:00,
2013-06-01 02:01:00,64.0,47.0,28.76,SSW,204,0.0,0.0,53,0.00,,,0.00,,2013-06-01 09:01:00,
2013-06-01 02:12:00,64.0,47.0,28.76,SSW,204,0.0,0.0,53,0.00,,,0.00,,2013-06-01 09:12:00,
2013-06-01 02:21:00,63.0,47.0,28.76,SSW,204,0.0,0.0,55,0.00,,,0.00,,2013-06-01 09:21:00,
2013-06-01 02:33:00,62.0,47.0,28.76,SSW,204,0.0,0.0,57,0.00,,,0.00,,2013-06-01 09:33:00,
2013-06-01 02:42:00,62.0,47.0,28.76,SSW,204,0.0,0.0,57,0.00,,,0.00,,2013-06-01 09:42:00,
2013-06-01 02:53:00,62.0,47.0,28.76,SSW,204,0.0,0.0,59,0.00,,,0.00,,2013-06-01 09:53:00,
2013-06-01 03:02:00,61.0,46.0,28.76,SSW,204,0.0,0.0,58,0.00,,,0.00,,2013-06-01 10:02:00,
2013-06-01 03:12:00,61.0,46.0,28.76,SSW,204,0.0,0.0,58,0.00,,,0.00,,2013-06-01 10:12:00,
2013-06-01 03:22:00,60.0,46.0,28.75,SSW,204,0.0,0.0,60,0.00,,,0.00,,2013-06-01 10:22:00,
2013-06-01 03:32:00,60.0,47.0,28.75,SSW,204,0.0,0.0,61,0.00,,,0.00,,2013-06-01 10:32:00,
2013-06-01 03:42:00,60.0,47.0,28.75,SSW,204,0.0,0.0,61,0.00,,,0.00,,2013-06-01 10:42:00,
2013-06-01 03:52:00,59.0,46.0,28.75,SSW,204,0.0,0.0,62,0.00,,,0.00,,2013-06-01 10:52:00,
2013-06-01 04:02:00,59.0,47.0,28.74,SSW,204,0.0,0.0,64,0.00,,,0.00,,2013-06-01 11:02:00,
2013-06-01 04:11:00,59.0,47.0,28.74,SSW,204,0.0,0.0,64,0.00,,,0.00,,2013-06-01 11:11:00,
2013-06-01 04:21:00,58.0,46.0,28.73,SSW,204,0.0,0.0,64,0.00,,,0.00,,2013-06-01 11:21:00,
2013-06-01 04:32:00,58.0,46.0,28.73,SSW,204,0.0,0.0,64,0.00,,,0.00,,2013-06-01 11:32:00,
2013-06-01 04:42:00,58.0,46.0,28.73,SSW,204,0.0,0.0,64,0.00,,,0.00,,2013-06-01 11:42:00,
2013-06-01 04:52:00,58.0,46.0,28.73,SSW,204,0.0,0.0,65,0.00,,,0.00,,2013-06-01 11:52:00,
2013-06-01 05:01:00,58.0,46.0,28.73,SSW,204,0.0,0.0,65,0.00,,,0.00,,2013-06-01 12:01:00,
2013-06-01 05:11:00,58.0,46.0,28.73,SSW,204,0.0,0.0,65,0.00,,,0.00,,2013-06-01 12:11:00,
2013-06-01 05:21:00,57.0,46.0,28.74,SSW,204,0.0,0.0,66,0.00,,,0.00,,2013-06-01 12:21:00,
2013-06-01 05:32:00,56.0,46.0,28.74,SSW,204,0.0,0.0,69,0.00,,,0.00,,2013-06-01 12:32:00,
2013-06-01 05:41:00,56.0,46.0,28.74,SSW,204,0.0,0.0,69,0.00,,,0.00,,2013-06-01 12:41:00,
2013-06-01 05:52:00,56.0,46.0,28.73,SSW,204,0.0,0.0,69,0.00,,,0.00,,2013-06-01 12:52:00,
2013-06-01 06:01:00,56.0,46.0,28.73,SSW,204,0.0,0.0,68,0.00,,,0.00,,2013-06-01 13:01:00,
2013-06-01 06:11:00,56.0,46.0,28.73,SSW,204,0.0,0.0,68,0.00,,,0.00,,2013-06-01 13:11:00,
2013-06-01 06:22:00,56.0,46.0,28.74,SSW,204,0.0,0.0,69,0.00,,,0.00,,2013-06-01 13:22:00,
2013-06-01 06:32:00,56.0,46.0,28.74,SSW,204,0.0,0.0,70,0.00,,,0.00,,2013-06-01 13:32:00,
2013-06-01 06:42:00,56.0,46.0,28.74,SSW,204,0.0,0.0,70,0.00,,,0.00,,2013-06-01 13:42:00,
2013-06-01 06:52:00,56.0,47.0,28.73,SSW,204,0.0,0.0,71,0.00,,,0.00,,2013-06-01 13:52:00,
2013-06-01 07:01:00,55.0,46.0,28.74,SSW,204,0.0,0.0,71,0.00,,,0.00,,2013-06-01 14:01:00,
2013-06-01 07:11:00,55.0,46.0,28.74,SSW,204,0.0,0.0,71,0.00,,,0.00,,2013-06-01 14:11:00,
2013-06-01 07:21:00,55.0,47.0,28.74,SSW,204,0.0,0.0,73,0.00,,,0.00,,2013-06-01 14:21:00,
2013-06-01 07:32:00,56.0,47.0,28.74,SSW,204,0.0,0.0,72,0.00,,,0.00,,2013-06-01 14:32:00,
2013-06-01 07:42:00,56.0,47.0,28.74,SSW,204,0.0,0.0,72,0.00,,,0.00,,2013-06-01 14:42:00,
2013-06-01 07:52:00,58.0,50.0,28.74,SSW,204,0.0,0.0,74,0.00,,,0.00,,2013-06-01 14:52:00,
2013-06-01 08:01:00,61.0,50.0,28.74,SSW,204,0.0,0.0,66,0.00,,,0.00,,2013-06-01 15:01:00,
2013-06-01 08:11:00,61.0,50.0,28.74,SSW,204,0.0,0.0,66,0.00,,,0.00,,2013-06-01 15:11:00,
2013-06-01 08:21:00,63.0,50.0,28.74,SSW,204,0.0,0.0,62,0.00,,,0.00,,2013-06-01 15:21:00,
2013-06-01 08:33:00,64.0,50.0,28.74,SSW,204,0.0,1.0,61,0.00,,,0.00,,2013-06-01 15:33:00,
2013-06-01 08:43:00,64.0,50.0,28.74,SSW,204,0.0,1.0,61,0.00,,,0.00,,2013-06-01 15:43:00,
2013-06-01 08:53:00,66.0,52.0,28.74,SSW,203,0.0,2.0,60,0.00,,,0.00,,2013-06-01 15:53:00,
2013-06-01 09:03:00,70.0,54.0,28.74,SSW,202,0.0,1.0,56,0.00,,,0.00,,2013-06-01 16:03:00,
2013-06-01 09:12:00,70.0,54.0,28.74,SSW,202,0.0,1.0,56,0.00,,,0.00,,2013-06-01 16:12:00,
2013-06-01 09:23:00,73.0,54.0,28.74,SSW,202,0.0,1.0,51,0.00,,,0.00,,2013-06-01 16:23:00,
2013-06-01 09:33:00,76.0,53.0,28.74,SSW,202,0.0,1.0,45,0.00,,,0.00,,2013-06-01 16:33:00,
2013-06-01 09:42:00,76.0,53.0,28.74,SSW,202,0.0,1.0,45,0.00,,,0.00,,2013-06-01 16:42:00,
2013-06-01 09:52:00,79.0,53.0,28.74,SSW,202,0.0,1.0,41,0.00,,,0.00,,2013-06-01 16:52:00,
2013-06-01 10:02:00,80.0,49.0,28.74,WSW,253,0.0,2.0,34,0.00,,,0.00,,2013-06-01 17:02:00,
2013-06-01 10:11:00,80.0,49.0,28.74,WSW,253,0.0,2.0,34,0.00,,,0.00,,2013-06-01 17:11:00,
2013-06-01 10:22:00,83.0,48.0,28.73,NW,311,0.0,4.0,30,0.00,,,0.00,,2013-06-01 17:22:00,
2013-06-01 10:32:00,84.0,47.0,28.73,SSW,210,0.0,5.0,28,0.00,,,0.00,,2013-06-01 17:32:00,
2013-06-01 10:42:00,84.0,47.0,28.73,SSW,210,0.0,5.0,28,0.00,,,0.00,,2013-06-01 17:42:00,
2013-06-01 10:52:00,86.0,47.0,28.72,NW,316,0.0,5.0,26,0.00,,,0.00,,2013-06-01 17:52:00,
2013-06-01 11:01:00,89.0,46.0,28.72,NW,319,0.0,5.0,23,0.00,,,0.00,,2013-06-01 18:01:00,
2013-06-01 11:12:00,89.0,46.0,28.72,NW,319,0.0,5.0,23,0.00,,,0.00,,2013-06-01 18:12:00,
2013-06-01 11:21:00,90.0,46.0,28.72,NW,309,0.0,5.0,22,0.00,,,0.00,,2013-06-01 18:21:00,
2013-06-01 11:32:00,91.0,47.0,28.71,West,263,0.0,2.0,22,0.00,,,0.00,,2013-06-01 18:32:00,
2013-06-01 11:41:00,91.0,47.0,28.71,West,263,0.0,2.0,22,0.00,,,0.00,,2013-06-01 18:41:00,
2013-06-01 12:01:00,92.0,46.0,28.71,East,80,0.0,4.0,21,0.00,,,0.00,,2013-06-01 19:01:00,
2013-06-01 12:11:00,92.0,46.0,28.71,East,80,0.0,4.0,21,0.00,,,0.00,,2013-06-01 19:11:00,
2013-06-01 12:21:00,93.0,45.0,28.71,WNW,284,1.0,9.0,19,0.00,,,0.00,,2013-06-01 19:21:00,
2013-06-01 12:32:00,95.0,45.0,28.70,ENE,65,1.0,6.0,18,0.00,,,0.00,,2013-06-01 19:32:00,
2013-06-01 12:41:00,95.0,45.0,28.70,ENE,65,1.0,6.0,18,0.00,,,0.00,,2013-06-01 19:41:00,
2013-06-01 13:01:00,98.0,42.0,28.69,WNW,282,1.0,7.0,15,0.00,,,0.00,,2013-06-01 20:01:00,
2013-06-01 13:21:00,97.0,43.0,28.69,NW,323,1.0,6.0,16,0.00,,,0.00,,2013-06-01 20:21:00,
2013-06-01 13:32:00,98.0,44.0,28.69,NNW,331,1.0,9.0,16,0.00,,,0.00,,2013-06-01 20:32:00,
2013-06-01 13:41:00,98.0,44.0,28.69,NNW,331,1.0,9.0,16,0.00,,,0.00,,2013-06-01 20:41:00,
2013-06-01 13:52:00,99.0,43.0,28.68,WNW,295,2.0,6.0,15,0.00,,,0.00,,2013-06-01 20:52:00,
2013-06-01 14:01:00,97.0,43.0,28.68,SW,221,1.0,7.0,16,0.00,,,0.00,,2013-06-01 21:01:00,
2013-06-01 14:11:00,98.0,42.0,28.67,NW,312,1.0,6.0,15,0.00,,,0.00,,2013-06-01 21:11:00,
2013-06-01 14:21:00,98.0,42.0,28.67,NW,312,1.0,6.0,15,0.00,,,0.00,,2013-06-01 21:21:00,
2013-06-01 14:33:00,99.0,41.0,28.67,North,350,1.0,4.0,14,0.00,,,0.00,,2013-06-01 21:33:00,
2013-06-01 14:42:00,99.0,41.0,28.67,North,350,1.0,4.0,14,0.00,,,0.00,,2013-06-01 21:42:00,
2013-06-01 14:53:00,98.0,42.0,28.67,WSW,238,1.0,8.0,15,0.00,,,0.00,,2013-06-01 21:53:00,
2013-06-01 15:03:00,99.0,41.0,28.66,West,281,2.0,8.0,14,0.00,,,0.00,,2013-06-01 22:03:00,
2013-06-01 15:12:00,99.0,41.0,28.66,West,281,2.0,8.0,14,0.00,,,0.00,,2013-06-01 22:12:00,
2013-06-01 15:23:00,98.0,42.0,28.66,West,271,1.0,5.0,15,0.00,,,0.00,,2013-06-01 22:23:00,
2013-06-01 15:33:00,99.0,43.0,28.66,North,10,0.0,6.0,15,0.00,,,0.00,,2013-06-01 22:33:00,
2013-06-01 15:42:00,99.0,43.0,28.66,North,10,0.0,6.0,15,0.00,,,0.00,,2013-06-01 22:42:00,
2013-06-01 15:53:00,99.0,45.0,28.65,NW,311,2.0,8.0,16,0.00,,,0.00,,2013-06-01 22:53:00,
2013-06-01 16:02:00,99.0,45.0,28.65,NNW,328,1.0,6.0,16,0.00,,,0.00,,2013-06-01 23:02:00,
2013-06-01 16:11:00,99.0,45.0,28.65,NNW,328,1.0,6.0,16,0.00,,,0.00,,2013-06-01 23:11:00,
2013-06-01 16:21:00,98.0,42.0,28.64,East,93,1.0,5.0,15,0.00,,,0.00,,2013-06-01 23:21:00,
2013-06-01 16:32:00,98.0,44.0,28.64,SW,227,2.0,4.0,16,0.00,,,0.00,,2013-06-01 23:32:00,
2013-06-01 16:42:00,98.0,44.0,28.64,SW,227,2.0,4.0,16,0.00,,,0.00,,2013-06-01 23:42:00,
2013-06-01 16:52:00,97.0,46.0,28.64,North,5,2.0,6.0,18,0.00,,,0.00,,2013-06-01 23:52:00,
2013-06-01 17:02:00,99.0,47.0,28.63,NW,321,1.0,4.0,17,0.00,,,0.00,,2013-06-02 00:02:00,
2013-06-01 17:11:00,99.0,47.0,28.63,NW,321,1.0,4.0,17,0.00,,,0.00,,2013-06-02 00:11:00,
2013-06-01 17:21:00,99.0,49.0,28.63,WSW,257,1.0,7.0,19,0.00,,,0.00,,2013-06-02 00:21:00,
2013-06-01 17:32:00,96.0,48.0,28.63,NW,325,2.0,7.0,20,0.00,,,0.00,,2013-06-02 00:32:00,
2013-06-01 17:41:00,96.0,48.0,28.63,NW,325,2.0,7.0,20,0.00,,,0.00,,2013-06-02 00:41:00,
2013-06-01 17:51:00,94.0,49.0,28.63,NNW,328,2.0,9.0,22,0.00,,,0.00,,2013-06-02 00:51:00,
2013-06-01 18:01:00,92.0,50.0,28.62,WNW,290,1.0,7.0,24,0.00,,,0.00,,2013-06-02 01:01:00,
2013-06-01 18:11:00,92.0,50.0,28.62,WNW,290,1.0,7.0,24,0.00,,,0.00,,2013-06-02 01:11:00,
2013-06-01 18:21:00,92.0,50.0,28.62,NW,304,3.0,10.0,24,0.00,,,0.00,,2013-06-02 01:21:00,
2013-06-01 18:32:00,91.0,50.0,28.61,NW,306,1.0,12.0,25,0.00,,,0.00,,2013-06-02 01:32:00,
2013-06-01 18:41:00,91.0,50.0,28.61,NW,306,1.0,12.0,25,0.00,,,0.00,,2013-06-02 01:41:00,
2013-06-01 18:52:00,91.0,49.0,28.61,WSW,252,1.0,8.0,24,0.00,,,0.00,,2013-06-02 01:52:00,
2013-06-01 19:01:00,90.0,48.0,28.61,West,273,0.0,5.0,24,0.00,,,0.00,,2013-06-02 02:01:00,
2013-06-01 19:12:00,90.0,48.0,28.61,West,273,0.0,5.0,24,0.00,,,0.00,,2013-06-02 02:12:00,
2013-06-01 19:21:00,89.0,46.0,28.61,WNW,297,2.0,6.0,23,0.00,,,0.00,,2013-06-02 02:21:00,
2013-06-01 19:32:00,88.0,48.0,28.61,North,349,1.0,6.0,25,0.00,,,0.00,,2013-06-02 02:32:00,
2013-06-01 19:41:00,88.0,48.0,28.61,North,349,1.0,6.0,25,0.00,,,0.00,,2013-06-02 02:41:00,
2013-06-01 19:51:00,86.0,47.0,28.61,NW,321,1.0,8.0,26,0.00,,,0.00,,2013-06-02 02:51:00,
2013-06-01 20:02:00,85.0,47.0,28.61,NNW,327,1.0,8.0,27,0.00,,,0.00,,2013-06-02 03:02:00,
2013-06-01 20:11:00,85.0,47.0,28.61,NNW,327,1.0,8.0,27,0.00,,,0.00,,2013-06-02 03:11:00,
2013-06-01 20:21:00,84.0,47.0,28.61,North,5,2.0,7.0,28,0.00,,,0.00,,2013-06-02 03:21:00,
2013-06-01 20:33:00,83.0,47.0,28.61,NNW,348,2.0,10.0,28,0.00,,,0.00,,2013-06-02 03:33:00,
2013-06-01 20:43:00,83.0,47.0,28.61,NNW,348,2.0,10.0,28,0.00,,,0.00,,2013-06-02 03:43:00,
2013-06-01 20:52:00,82.0,47.0,28.61,WNW,296,1.0,4.0,29,0.00,,,0.00,,2013-06-02 03:52:00,
2013-06-01 21:02:00,80.0,46.0,28.61,North,355,1.0,3.0,30,0.00,,,0.00,,2013-06-02 04:02:00,
2013-06-01 21:13:00,80.0,46.0,28.61,North,355,1.0,3.0,30,0.00,,,0.00,,2013-06-02 04:13:00,
2013-06-01 21:23:00,80.0,46.0,28.61,NNW,331,2.0,6.0,30,0.00,,,0.00,,2013-06-02 04:23:00,
2013-06-01 21:33:00,79.0,46.0,28.61,North,9,2.0,8.0,31,0.00,,,0.00,,2013-06-02 04:33:00,
2013-06-01 21:42:00,79.0,46.0,28.61,North,9,2.0,8.0,31,0.00,,,0.00,,2013-06-02 04:42:00,
2013-06-01 21:52:00,78.0,46.0,28.62,NNE,16,3.0,6.0,32,0.00,,,0.00,,2013-06-02 04:52:00,
2013-06-01 22:02:00,77.0,46.0,28.62,North,9,2.0,5.0,33,0.00,,,0.00,,2013-06-02 05:02:00,
2013-06-01 22:11:00,77.0,46.0,28.62,North,9,2.0,5.0,33,0.00,,,0.00,,2013-06-02 05:11:00,
2013-06-01 22:22:00,76.0,45.0,28.63,NNE,12,2.0,5.0,33,0.00,,,0.00,,2013-06-02 05:22:00,
2013-06-01 22:32:00,76.0,45.0,28.63,NW,317,1.0,10.0,33,0.00,,,0.00,,2013-06-02 05:32:00,
2013-06-01 22:42:00,76.0,45.0,28.63,NW,317,1.0,10.0,33,0.00,,,0.00,,2013-06-02 05:42:00,
2013-06-01 22:52:00,76.0,45.0,28.63,NNE,15,1.0,3.0,33,0.00,,,0.00,,2013-06-02 05:52:00,
2013-06-01 23:01:00,75.0,45.0,28.63,NNW,337,1.0,4.0,34,0.00,,,0.00,,2013-06-02 06:01:00,
2013-06-01 23:12:00,75.0,45.0,28.63,NNW,337,1.0,4.0,34,0.00,,,0.00,,2013-06-02 06:12:00,
2013-06-01 23:21:00,75.0,45.0,28.63,North,355,1.0,4.0,35,0.00,,,0.00,,2013-06-02 06:21:00,
2013-06-01 23:31:00,74.0,45.0,28.62,WNW,302,0.0,1.0,36,0.00,,,0.00,,2013-06-02 06:31:00,
2013-06-01 23:41:00,74.0,45.0,28.62,WNW,302,0.0,1.0,36,0.00,,,0.00,,2013-06-02 06:41:00,
2013-06-01 23:52:00,72.0,45.0,28.62,WSW,250,0.0,0.0,38,0.00,,,0.00,,2013-06-02 06:52:00,